Tiempo atmosférico en la estación meteorológica de Moià, Barcelona (735 m.)



Fecha
DESCASC
Temp. máxima en grados centígrados (hora)
DESCASC
Temp. mínima en grados centígrados (hora)
DESCASC
Temp. media en grados centígrados
DESCASC
Racha de viento máxima en m/sg (hora)
DESCASC
Velocidad máxima media en intervalos de 10 minutos(hora)
DESCASC
Precipitaciones diarias en mm
DESCASC
Precipitaciones de 00:00 a 06:00 en mm
DESCASC
Precipitaciones de 06:00 a 12:00 en mm
DESCASC
Precipitaciones de 12:00 a 18:00 en mm
DESCASC
Precipitaciones de 18:00 a 24:00 en mm
DESCASC
17-02-2019 16.7 (13:30) 3.6 (23:59) 10.2 5.83 (14:30) 3.33 (14:40) 0 0 0 0 0
16-02-2019 17.5 (14:50) 3.7 (05:40) 10.6 5.83 (13:50) 3.06 (13:20) 0 0 0 0 0
15-02-2019 16 (14:40) 2.7 (03:50) 9.4 5.56 (13:00) 3.06 (14:10) 0 0 0 0 0
14-02-2019 14.9 (16:00) 1.6 (00:00) 8.2 5.83 (14:00) 3.33 (14:00) 0 0 0 0 0
13-02-2019 13.9 (14:40) 1.7 (00:00) 7.8 5.83 (14:30) 3.33 (14:40) 0 0 0 0 0
12-02-2019 12.5 (15:50) -0.3 (00:00) 6.1 5.56 (14:30) 3.33 (14:30) 0 0 0 0 0
11-02-2019 10.7 (16:50) 2.8 (00:00) 6.7 6.67 (13:10) 3.89 (13:10) 0 0 0 0 0
10-02-2019 12.6 (15:40) 5.3 (00:00) 9 14.17 (16:00) 7.5 (12:10) 0 0 0 0 0
09-02-2019 14.6 (14:50) 4.4 (00:00) 9.5 5 (15:30) 2.5 (15:40) 0 0 0 0 0
08-02-2019 12.5 (15:40) 2.5 (00:00) 7.5 8.89 (15:10) 5.28 (15:30) 0 0 0 0 0
07-02-2019 13.5 (12:50) 3.7 (00:00) 8.6 7.22 (13:10) 3.61 (15:10) 0 0 0 0 0
06-02-2019 15.8 (15:30) 1.9 (00:00) 8.9 4.72 (14:30) 1.94 (13:00) 0 0 0 0 0
05-02-2019 12 (15:50) 1.6 (00:00) 6.8 6.11 (10:40) 3.61 (11:30) 0 0 0 0 0
04-02-2019 10.5 (15:10) -3 (-00:0) 3.8 6.11 (11:10) 3.89 (11:20) 0 0 0 0 0
03-02-2019 8.8 (13:30) -2.4 (-00:0) 3.2 9.72 (14:30) 3.89 (14:30) 0 0 0 0 0
02-02-2019 7 (16:30) 0.4 (00:00) 3.7 8.06 (06:40) 4.17 (14:00) 0.8 0.8 0 0 0
01-02-2019 10.8 (14:50) 2.7 (00:00) 6.8 12.22 (13:50) 7.78 (14:00) 2.4 0.2 1 0 1.2
31-01-2019 10 (16:00) 0.6 (00:00) 5.3 11.11 (15:30) 6.67 (15:50) 0 0 0 0 0
30-01-2019 7.2 (14:40) -0.8 (-00:0) 3.2 12.22 (15:50) 6.94 (16:00) 0 0 0 0 0
29-01-2019 2.9 (16:10) -1.2 (-00:0) 0.9 8.06 (22:40) 4.17 (18:10) 0 0 0 0 0
28-01-2019 7.5 (15:30) -1.4 (-00:0) 3.1 9.17 (14:40) 5.28 (12:00) 0 0 0 0 0
27-01-2019 10.4 (15:10) 0.5 (00:00) 5.4 8.06 (16:30) 3.89 (13:00) 0 0 0 0 0
26-01-2019 10.8 (15:40) 2.1 (00:00) 6.5 7.78 (03:50) 3.89 (11:30) 0 0 0 0 0
25-01-2019 13.6 (16:10) -0.6 (-00:0) 6.5 6.39 (12:20) 3.33 (12:20) 0 0 0 0 0
24-01-2019 8.3 (14:00) -2.7 (-00:0) 2.8 11.39 (17:40) 3.89 (14:30) 0.2 0.2 0 0 0
23-01-2019 3.3 (13:00) -1.1 (-00:0) 1.1 6.94 (23:40) 3.61 (13:40) 1.2 0 0.8 0 0.4
22-01-2019 3.3 (13:40) -3.8 (-00:0) -0.3 6.67 (11:10) 3.89 (11:10) 0 0 0 0 0
21-01-2019 7.6 (15:10) 0.4 (00:00) 4 5.56 (13:00) 3.61 (13:30) 0 0 0 0 0
20-01-2019 5.4 (13:10) 1.7 (00:00) 3.6 9.44 (12:30) 3.33 (13:10) 7.4 2.6 4.8 0 0
19-01-2019 8.3 (13:50) -1.8 (-00:0) 3.3 5.28 (14:50) 3.61 (14:50) 0 0 0 0 0

Gráficas

Temp. máximas Temp. mínimas Temp. medias Precipitaciones Rachas de viento máximas Velocidades máximas media en intervalos de 10 minutos

Datos horarios

Fecha y hora oficial Temperatura (ºC) Velocidad del viento (km/h) Dirección del viento Racha (km/h) Dirección de racha Precipitación (mm) Presión (hPa) Tendencia (hPa) Humedad (%)
2019-02-17 23:00:00 4.5 4 Nordeste 12 Este 0 -- -- 95
2019-02-17 22:00:00 4.7 6 Nordeste 12 Este 0 -- -- 94
2019-02-17 21:00:00 5.5 3 Este 8 Este 0 -- -- 91
2019-02-17 20:00:00 6.4 4 Este 13 Este 0 -- -- 90
2019-02-17 19:00:00 7.7 5 Este 15 Sudeste 0 -- -- 86
2019-02-17 18:00:00 10.4 6 Sur 16 Sudeste 0 -- -- 70
2019-02-17 17:00:00 12.9 8 Sudeste 19 Sur 0 -- -- 49
2019-02-17 16:00:00 14.1 8 Sur 20 Sudeste 0 -- -- 46
2019-02-17 15:00:00 14.6 9 Sur 21 Sudeste 0 -- -- 46
2019-02-17 14:00:00 15.7 11 Sudeste 18 Sudeste 0 -- -- 36
2019-02-17 13:00:00 15.9 7 Sur 19 Sudoeste 0 -- -- 32
2019-02-17 12:00:00 15.2 4 Sur 9 Sudeste 0 -- -- 31
2019-02-17 11:00:00 13.7 4 Sur 8 Sudeste 0 -- -- 33
2019-02-17 10:00:00 12.2 4 Sudeste 6 Este 0 -- -- 32
2019-02-17 09:00:00 9.2 0 Calma 7 Nordeste 0 -- -- 36
2019-02-17 08:00:00 4 0 Calma 8 Norte 0 -- -- 42
2019-02-17 07:00:00 4.4 3 Norte 7 Norte 0 -- -- 27
2019-02-17 06:00:00 4.9 4 Norte 7 Norte 0 -- -- 30
2019-02-17 05:00:00 4.8 4 Norte 7 Norte 0 -- -- 34
2019-02-17 04:00:00 4.8 3 Norte 6 Norte 0 -- -- 39
2019-02-17 03:00:00 5.1 4 Norte 6 Norte 0 -- -- 47
2019-02-17 02:00:00 5.5 0 Calma 7 Norte 0 -- -- 48
2019-02-17 01:00:00 6.2 4 Nordeste 8 Nordeste 0 -- -- 40
2019-02-17 00:00:00 5.2 2 Norte 5 Norte 0 -- -- 49
2019-02-16 23:00:00 5.8 3 Noroeste 6 Norte 0 -- -- 52
2019-02-16 22:00:00 6.3 0 Calma 7 Norte 0 -- -- 51
2019-02-16 21:00:00 8 4 Nordeste 7 Nordeste 0 -- -- 60
2019-02-16 20:00:00 8.6 4 Nordeste 9 Este 0 -- -- 58
2019-02-16 19:00:00 10.6 5 Este 11 Sudeste 0 -- -- 52
2019-02-16 18:00:00 15.6 5 Sudoeste 13 Oeste 0 -- -- 33
2019-02-16 17:00:00 16.8 6 Oeste 18 Oeste 0 -- -- 22
2019-02-16 16:00:00 17.3 9 Oeste 17 Oeste 0 -- -- 24
2019-02-16 15:00:00 17.4 8 Oeste 18 Oeste 0 -- -- 25
2019-02-16 14:00:00 16.8 10 Oeste 21 Oeste 0 -- -- 24
2019-02-16 13:00:00 16.8 9 Oeste 18 Oeste 0 -- -- 25
2019-02-16 12:00:00 16.9 4 Sur 8 Sudoeste 0 -- -- 22
2019-02-16 11:00:00 14.7 4 Sudeste 5 Sudeste 0 -- -- 24
2019-02-16 10:00:00 13.1 0 Calma 4 Sudeste 0 -- -- 29
2019-02-16 09:00:00 9.5 0 Calma 5 Nordeste 0 -- -- 38
2019-02-16 08:00:00 3.8 0 Calma 5 Norte 0 -- -- 42
2019-02-16 07:00:00 3.8 0 Calma 4 Norte 0 -- -- 48
2019-02-16 06:00:00 3.8 0 Calma 5 Noroeste 0 -- -- 50
2019-02-16 05:00:00 4.1 3 Norte 8 Norte 0 -- -- 50
2019-02-16 04:00:00 4.7 2 Norte 8 Norte 0 -- -- 46
2019-02-16 03:00:00 4.4 4 Norte 6 Norte 0 -- -- 46
2019-02-16 02:00:00 4.6 4 Norte 7 Norte 0 -- -- 48
2019-02-16 01:00:00 4.3 0 Calma 4 Nordeste 0 -- -- 50
2019-02-16 00:00:00 4.5 0 Calma 5 Norte 0 -- -- 57
2019-02-15 23:00:00 5 0 Calma 8 Norte 0 -- -- 56
2019-02-15 22:00:00 5.5 0 Calma 6 Norte 0 -- -- 55
2019-02-15 21:00:00 6.6 4 Norte 7 Norte 0 -- -- 58
2019-02-15 20:00:00 7.5 3 Nordeste 8 Nordeste 0 -- -- 60
2019-02-15 19:00:00 9.1 0 Calma 7 Oeste 0 -- -- 48
2019-02-15 18:00:00 14.3 6 Oeste 14 Oeste 0 -- -- 28
2019-02-15 17:00:00 14.9 10 Oeste 17 Oeste 0 -- -- 28
2019-02-15 16:00:00 15.5 9 Oeste 19 Oeste 0 -- -- 25
2019-02-15 15:00:00 15.5 10 Sudoeste 18 Oeste 0 -- -- 25
2019-02-15 14:00:00 15.1 9 Oeste 20 Oeste 0 -- -- 26
2019-02-15 13:00:00 14.7 11 Oeste 20 Sudoeste 0 -- -- 27
2019-02-15 12:00:00 14.5 8 Oeste 14 Oeste 0 -- -- 27
2019-02-15 11:00:00 13.6 3 Sur 6 Sudeste 0 -- -- 24
2019-02-15 10:00:00 12 3 Este 5 Este 0 -- -- 24
2019-02-15 09:00:00 8.9 3 Este 7 Nordeste 0 -- -- 34
2019-02-15 08:00:00 4.5 4 Nordeste 8 Nordeste 0 -- -- 36
2019-02-15 07:00:00 3.3 0 Calma 7 Norte 0 -- -- 41
2019-02-15 06:00:00 3.1 4 Norte 6 Norte 0 -- -- 43
2019-02-15 05:00:00 3.1 2 Norte 6 Norte 0 -- -- 44
2019-02-15 04:00:00 2.7 0 Calma 5 Norte 0 -- -- 51
2019-02-15 03:00:00 3.3 0 Calma 6 Noroeste 0 -- -- 51
2019-02-15 02:00:00 3 4 Norte 6 Norte 0 -- -- 54
2019-02-15 01:00:00 3.4 3 Norte 7 Norte 0 -- -- 71
2019-02-15 00:00:00 3.5 0 Calma 5 Norte 0 -- -- 78
2019-02-14 23:00:00 3.9 4 Noroeste 6 Noroeste 0 -- -- 78
2019-02-14 22:00:00 4.2 0 Calma 4 Noroeste 0 -- -- 76
2019-02-14 21:00:00 5 3 Nordeste 6 Nordeste 0 -- -- 74
2019-02-14 20:00:00 5.9 4 Nordeste 9 Este 0 -- -- 75
2019-02-14 19:00:00 7.5 5 Este 13 Sudeste 0 -- -- 70
2019-02-14 18:00:00 10.9 8 Sudeste 14 Sudeste 0 -- -- 55
2019-02-14 17:00:00 13.9 10 Sudoeste 16 Oeste 0 -- -- 28
2019-02-14 16:00:00 14.9 9 Oeste 18 Oeste 0 -- -- 26
2019-02-14 15:00:00 14.6 10 Oeste 20 Oeste 0 -- -- 31
2019-02-14 14:00:00 14.1 12 Oeste 21 Oeste 0 -- -- 32
2019-02-14 13:00:00 14.1 9 Oeste 17 Oeste 0 -- -- 25
2019-02-14 12:00:00 13.4 7 Sudoeste 14 Sudoeste 0 -- -- 20
2019-02-14 11:00:00 11.4 8 Oeste 12 Oeste 0 -- -- 23
2019-02-14 10:00:00 9.7 0 Calma 8 Sudoeste 0 -- -- 34
2019-02-14 09:00:00 7 4 Oeste 8 Oeste 0 -- -- 32
2019-02-14 08:00:00 2.1 0 Calma 6 Norte 0 -- -- 41
2019-02-14 07:00:00 2.8 4 Norte 10 Noroeste 0 -- -- 43
2019-02-14 06:00:00 2.4 0 Calma 9 Norte 0 -- -- 44
2019-02-14 05:00:00 1.8 0 Calma 10 Sudeste 0 -- -- 44
2019-02-14 04:00:00 1.9 3 Norte 7 Norte 0 -- -- 42
2019-02-14 03:00:00 1.9 0 Calma 10 Norte 0 -- -- 50
2019-02-14 02:00:00 1.8 0 Calma 5 Norte 0 -- -- 54
2019-02-14 01:00:00 1.9 0 Calma 4 Norte 0 -- -- 62
2019-02-14 00:00:00 2.6 3 Norte 6 Norte 0 -- -- 62
2019-02-13 23:00:00 3.1 3 Norte 5 Norte 0 -- -- 66
2019-02-13 22:00:00 4.2 4 Norte 8 Norte 0 -- -- 77
2019-02-13 21:00:00 5 3 Nordeste 6 Norte 0 -- -- 86
2019-02-13 20:00:00 6.3 3 Nordeste 8 Este 0 -- -- 82
2019-02-13 19:00:00 8 3 Este 10 Sur 0 -- -- 77
2019-02-13 18:00:00 10.3 5 Sur 15 Sudoeste 0 -- -- 67
2019-02-13 17:00:00 12.8 7 Sudoeste 18 Sudoeste 0 -- -- 50
2019-02-13 16:00:00 13.2 10 Sudoeste 19 Oeste 0 -- -- 47
2019-02-13 15:00:00 13.9 11 Oeste 21 Oeste 0 -- -- 42
2019-02-13 14:00:00 13.3 10 Sudoeste 19 Oeste 0 -- -- 45
2019-02-13 13:00:00 13 11 Oeste 18 Sudoeste 0 -- -- 36
2019-02-13 12:00:00 12.1 8 Sudoeste 14 Sur 0 -- -- 49
2019-02-13 11:00:00 10.6 4 Sudeste 8 Sudeste 0 -- -- 44
2019-02-13 10:00:00 8.6 4 Sudeste 6 Sudeste 0 -- -- 55
2019-02-13 09:00:00 5.2 0 Calma 8 Este 0 -- -- 68
2019-02-13 08:00:00 1.8 0 Calma 5 Este 0 -- -- 76
2019-02-13 07:00:00 1.9 2 Noroeste 9 Nordeste 0 -- -- 76
2019-02-13 06:00:00 2.6 3 Norte 6 Norte 0 -- -- 78
2019-02-13 05:00:00 2.7 2 Norte 7 Norte 0 -- -- 79
2019-02-13 04:00:00 2.6 2 Norte 6 Norte 0 -- -- 78
2019-02-13 03:00:00 2.5 0 Calma 6 Norte 0 -- -- 78
2019-02-13 02:00:00 2.3 2 Norte 6 Norte 0 -- -- 80
2019-02-13 01:00:00 2.3 0 Calma 5 Norte 0 -- -- 80
2019-02-13 00:00:00 2.8 0 Calma 5 Norte 0 -- -- 79
2019-02-12 23:00:00 3.4 2 Norte 6 Nordeste 0 -- -- 76
2019-02-12 22:00:00 3.7 4 Norte 9 Norte 0 -- -- 75
2019-02-12 21:00:00 4.1 4 Norte 8 Noroeste 0 -- -- 70
2019-02-12 20:00:00 6 6 Noroeste 9 Noroeste 0 -- -- 62
2019-02-12 19:00:00 7.9 6 Noroeste 8 Noroeste 0 -- -- 57
2019-02-12 18:00:00 10.7 5 Oeste 20 Oeste 0 -- -- 49
2019-02-12 17:00:00 11.4 12 Oeste 19 Oeste 0 -- -- 42
2019-02-12 16:00:00 12.4 9 Oeste 19 Oeste 0 -- -- 32
2019-02-12 15:00:00 12.3 9 Oeste 20 Oeste 0 -- -- 36
2019-02-12 14:00:00 12 9 Oeste 18 Oeste 0 -- -- 45
2019-02-12 13:00:00 10.5 6 Oeste 15 Oeste 0 -- -- 55
2019-02-12 12:00:00 8.5 9 Oeste 18 Oeste 0 -- -- 66
2019-02-12 11:00:00 7.6 4 Sudeste 10 Sudeste 0 -- -- 70
2019-02-12 10:00:00 4.4 3 Sudeste 11 Sudoeste 0 -- -- 84
2019-02-12 09:00:00 1.6 5 Oeste 10 Oeste 0 -- -- 93
2019-02-12 08:00:00 -0.3 4 Noroeste 9 Sudeste 0 -- -- 96
2019-02-12 07:00:00 0.2 4 Norte 14 Sudeste 0 -- -- 96
2019-02-12 06:00:00 0.9 3 Norte 12 Oeste 0 -- -- 96
2019-02-12 05:00:00 2.4 4 Noroeste 8 Oeste 0 -- -- 97
2019-02-12 04:00:00 2.5 4 Norte 9 Noroeste 0 -- -- 96
2019-02-12 03:00:00 2.6 6 Norte 9 Norte 0 -- -- 96
2019-02-12 02:00:00 3 3 Nordeste 8 Este 0 -- -- 94
2019-02-12 01:00:00 4.1 3 Norte 9 Nordeste 0 -- -- 94
2019-02-12 00:00:00 4.8 3 Este 11 Este 0 -- -- 94
2019-02-11 23:00:00 4.8 4 Nordeste 10 Nordeste 0 -- -- 92
2019-02-11 22:00:00 4.7 3 Este 11 Sudeste 0 -- -- 89
2019-02-11 21:00:00 5.1 3 Nordeste 6 Norte 0 -- -- 83
2019-02-11 20:00:00 5.6 3 Norte 9 Noroeste 0 -- -- 72
2019-02-11 19:00:00 6.3 3 Noroeste 5 Noroeste 0 -- -- 70
2019-02-11 18:00:00 10.1 2 Norte 18 Oeste 0 -- -- 57
2019-02-11 17:00:00 10.7 10 Oeste 18 Sudoeste 0 -- -- 54
2019-02-11 16:00:00 10.2 12 Oeste 22 Oeste 0 -- -- 56
2019-02-11 15:00:00 9.9 11 Oeste 18 Oeste 0 -- -- 57
2019-02-11 14:00:00 9.2 8 Oeste 24 Oeste 0 -- -- 60
2019-02-11 13:00:00 9 13 Oeste 22 Sudoeste 0 -- -- 58
2019-02-11 12:00:00 7.8 9 Oeste 16 Oeste 0 -- -- 61
2019-02-11 11:00:00 4.8 6 Oeste 12 Sudoeste 0 -- -- 81
2019-02-11 10:00:00 4.1 7 Oeste 12 Oeste 0 -- -- 91
2019-02-11 09:00:00 4.1 0 Calma 11 Oeste 0 -- -- 93
2019-02-11 08:00:00 3.4 3 Noroeste 10 Oeste 0 -- -- 93
2019-02-11 07:00:00 2.8 3 Oeste 12 Oeste 0 -- -- 91
2019-02-11 06:00:00 3.9 3 Oeste 7 Oeste 0 -- -- 89
2019-02-11 05:00:00 4.4 0 Calma 8 Oeste 0 -- -- 86
2019-02-11 04:00:00 5.3 2 Oeste 13 Oeste 0 -- -- 85
2019-02-11 03:00:00 5.7 6 Oeste 17 Oeste 0 -- -- 84
2019-02-11 02:00:00 6.7 5 Oeste 9 Oeste 0 -- -- 84
2019-02-11 01:00:00 6.9 5 Oeste 9 Sudoeste 0 -- -- 84
2019-02-11 00:00:00 6.8 2 Sudoeste 6 Sudeste 0 -- -- 84
2019-02-10 23:00:00 7.9 3 Norte 14 Oeste 0 -- -- 80
2019-02-10 22:00:00 8.5 8 Oeste 17 Oeste 0 -- -- 77
2019-02-10 21:00:00 9.2 11 Oeste 21 Oeste 0 -- -- 75
2019-02-10 20:00:00 9.3 8 Oeste 20 Oeste 0 -- -- 74
2019-02-10 19:00:00 10.1 12 Oeste 27 Oeste 0 -- -- 71
2019-02-10 18:00:00 11.5 17 Oeste 37 Oeste 0 -- -- 65
2019-02-10 17:00:00 11.8 21 Oeste 45 Oeste 0 -- -- 63
2019-02-10 16:00:00 12.6 25 Oeste 51 Oeste 0 -- -- 60
2019-02-10 15:00:00 11.4 16 Oeste 32 Oeste 0 -- -- 63
2019-02-10 14:00:00 9.3 20 Oeste 41 Oeste 0 -- -- 70
2019-02-10 13:00:00 8.8 24 Oeste 46 Oeste 0 -- -- 71
2019-02-10 12:00:00 9.2 22 Oeste 36 Oeste 0 -- -- 72
2019-02-10 11:00:00 8.7 21 Oeste 37 Oeste 0 -- -- 71
2019-02-10 10:00:00 8.7 18 Oeste 32 Oeste 0 -- -- 70
2019-02-10 09:00:00 6.7 13 Oeste 38 Oeste 0 -- -- 76
2019-02-10 08:00:00 5.9 11 Oeste 23 Oeste 0 -- -- 79
2019-02-10 07:00:00 5.4 4 Oeste 18 Oeste 0 -- -- 82
2019-02-10 06:00:00 5.5 6 Noroeste 15 Noroeste 0 -- -- 82
2019-02-10 05:00:00 5.9 8 Noroeste 15 Oeste 0 -- -- 80
2019-02-10 04:00:00 6.7 7 Noroeste 16 Noroeste 0 -- -- 77
2019-02-10 03:00:00 6.5 5 Noroeste 11 Oeste 0 -- -- 81
2019-02-10 02:00:00 6.4 5 Noroeste 15 Oeste 0 -- -- 85
2019-02-10 01:00:00 7 8 Oeste 15 Oeste 0 -- -- 85
2019-02-10 00:00:00 7 6 Oeste 15 Oeste 0 -- -- 85
2019-02-09 23:00:00 6.3 7 Oeste 15 Oeste 0 -- -- 84
2019-02-09 22:00:00 6 4 Oeste 9 Oeste 0 -- -- 78
2019-02-09 21:00:00 6.6 4 Norte 7 Nordeste 0 -- -- 75
2019-02-09 20:00:00 7.1 4 Nordeste 6 Nordeste 0 -- -- 75
2019-02-09 19:00:00 8.6 4 Nordeste 9 Sudeste 0 -- -- 71
2019-02-09 18:00:00 11.6 4 Sudoeste 13 Sudoeste 0 -- -- 61
2019-02-09 17:00:00 13.1 6 Sur 15 Oeste 0 -- -- 54
2019-02-09 16:00:00 13.8 9 Oeste 18 Sudoeste 0 -- -- 57
2019-02-09 15:00:00 14.5 8 Oeste 16 Oeste 0 -- -- 56
2019-02-09 14:00:00 14.2 9 Oeste 16 Oeste 0 -- -- 57
2019-02-09 13:00:00 12.7 8 Oeste 15 Oeste 0 -- -- 62
2019-02-09 12:00:00 11.7 7 Oeste 13 Sudoeste 0 -- -- 64
2019-02-09 11:00:00 9.9 6 Oeste 14 Oeste 0 -- -- 69
2019-02-09 10:00:00 8 5 Oeste 10 Oeste 0 -- -- 74
2019-02-09 09:00:00 5.4 3 Norte 6 Nordeste 0 -- -- 83
2019-02-09 08:00:00 4.5 0 Calma 6 Oeste 0 -- -- 83
2019-02-09 07:00:00 4.9 3 Noroeste 5 Norte 0 -- -- 82
2019-02-09 06:00:00 6 0 Calma 12 Noroeste 0 -- -- 75
2019-02-09 05:00:00 6.5 6 Noroeste 10 Noroeste 0 -- -- 74
2019-02-09 04:00:00 6.2 6 Noroeste 14 Norte 0 -- -- 76
2019-02-09 03:00:00 5.3 5 Norte 10 Noroeste 0 -- -- 84
2019-02-09 02:00:00 5.4 4 Norte 11 Norte 0 -- -- 84
2019-02-09 01:00:00 5.8 4 Noroeste 10 Oeste 0 -- -- 81
2019-02-09 00:00:00 6.2 5 Noroeste 14 Noroeste 0 -- -- 81
2019-02-08 23:00:00 6.3 5 Noroeste 12 Norte 0 -- -- 77
2019-02-08 22:00:00 6.7 6 Noroeste 12 Noroeste 0 -- -- 76
2019-02-08 21:00:00 7.4 6 Noroeste 12 Noroeste 0 -- -- 74
2019-02-08 20:00:00 7.8 5 Noroeste 14 Oeste 0 -- -- 72
2019-02-08 19:00:00 8.5 8 Oeste 18 Oeste 0 -- -- 68
2019-02-08 18:00:00 10.8 11 Oeste 22 Oeste 0 -- -- 60
2019-02-08 17:00:00 11.9 13 Oeste 24 Sudoeste 0 -- -- 56
2019-02-08 16:00:00 12.2 16 Oeste 32 Oeste 0 -- -- 59
2019-02-08 15:00:00 11.5 17 Oeste 26 Oeste 0 -- -- 62
2019-02-08 14:00:00 11 14 Oeste 25 Oeste 0 -- -- 62
2019-02-08 13:00:00 9.4 11 Oeste 19 Sudoeste 0 -- -- 73
2019-02-08 12:00:00 8.3 9 Oeste 15 Oeste 0 -- -- 85
2019-02-08 11:00:00 5 6 Oeste 13 Sudoeste 0 -- -- 98
2019-02-08 10:00:00 4.1 4 Oeste 14 Oeste 0 -- -- 98
2019-02-08 09:00:00 3.2 5 Oeste 13 Oeste 0 -- -- 97
2019-02-08 08:00:00 2.5 2 Noroeste 7 Oeste 0 -- -- 95
2019-02-08 07:00:00 2.8 3 Norte 13 Noroeste 0 -- -- 94
2019-02-08 06:00:00 3.3 7 Noroeste 11 Noroeste 0 -- -- 94
2019-02-08 05:00:00 3.3 2 Norte 5 Norte 0 -- -- 94
2019-02-08 04:00:00 4.3 3 Noroeste 6 Noroeste 0 -- -- 94
2019-02-08 03:00:00 5.2 2 Noroeste 9 Oeste 0 -- -- 94
2019-02-08 02:00:00 5.6 4 Oeste 8 Sudoeste 0 -- -- 92
2019-02-08 01:00:00 6.8 3 Oeste 7 Oeste 0 -- -- 93
2019-02-08 00:00:00 7.3 0 Calma 4 Sudoeste 0 -- -- 93
2019-02-07 23:00:00 7.4 2 Este 5 Sur 0 -- -- 93
2019-02-07 22:00:00 7.7 0 Calma 4 Sudoeste 0 -- -- 92
2019-02-07 21:00:00 7.5 0 Calma 9 Nordeste 0 -- -- 91
2019-02-07 20:00:00 7.5 2 Este 6 Oeste 0 -- -- 87
2019-02-07 19:00:00 8.8 5 Oeste 13 Oeste 0 -- -- 80
2019-02-07 18:00:00 10 5 Sur 15 Sudoeste 0 -- -- 77
2019-02-07 17:00:00 11.2 6 Sur 21 Sudoeste 0 -- -- 70
2019-02-07 16:00:00 12.6 9 Sur 23 Sudeste 0 -- -- 65
2019-02-07 15:00:00 12.2 8 Sudeste 22 Sudeste 0 -- -- 64
2019-02-07 14:00:00 12.8 11 Sudeste 26 Sudeste 0 -- -- 62
2019-02-07 13:00:00 13.5 10 Sudoeste 21 Sudoeste 0 -- -- 61
2019-02-07 12:00:00 12.4 4 Sur 9 Sur 0 -- -- 66
2019-02-07 11:00:00 10.4 3 Sur 12 Oeste 0 -- -- 74
2019-02-07 10:00:00 7.5 3 Sudoeste 7 Oeste 0 -- -- 81
2019-02-07 09:00:00 4.8 2 Norte 7 Nordeste 0 -- -- 91
2019-02-07 08:00:00 4 2 Oeste 7 Norte 0 -- -- 92
2019-02-07 07:00:00 4 3 Nordeste 8 Nordeste 0 -- -- 94
2019-02-07 06:00:00 3.8 3 Norte 6 Norte 0 -- -- 93
2019-02-07 05:00:00 4 3 Norte 9 Norte 0 -- -- 93
2019-02-07 04:00:00 4.3 0 Calma 6 Norte 0 -- -- 94
2019-02-07 03:00:00 4.3 0 Calma 3 Oeste 0 -- -- 94
2019-02-07 02:00:00 4.5 0 Calma 5 Norte 0 -- -- 94
2019-02-07 01:00:00 4.9 0 Calma 6 Nordeste 0 -- -- 94
2019-02-07 00:00:00 5.8 3 Norte 6 Nordeste 0 -- -- 94
2019-02-06 23:00:00 5.1 0 Calma 5 Norte 0 -- -- 93
2019-02-06 22:00:00 5.7 0 Calma 5 Norte 0 -- -- 90
2019-02-06 21:00:00 6.9 4 Noroeste 6 Noroeste 0 -- -- 89
2019-02-06 20:00:00 7.4 2 Nordeste 5 Norte 0 -- -- 85
2019-02-06 19:00:00 9.1 3 Nordeste 6 Sudeste 0 -- -- 78
2019-02-06 18:00:00 12.8 4 Sur 13 Sur 0 -- -- 66
2019-02-06 17:00:00 14.7 4 Sudoeste 14 Oeste 0 -- -- 60
2019-02-06 16:00:00 15.1 6 Sudoeste 13 Sur 0 -- -- 60
2019-02-06 15:00:00 15.6 6 Sur 17 Sudeste 0 -- -- 56
2019-02-06 14:00:00 14.5 7 Sudoeste 16 Sudeste 0 -- -- 62
2019-02-06 13:00:00 14.5 7 Sur 13 Sudeste 0 -- -- 62
2019-02-06 12:00:00 13.2 5 Sur 13 Sur 0 -- -- 68
2019-02-06 11:00:00 10.7 0 Calma 6 Oeste 0 -- -- 72
2019-02-06 10:00:00 6.4 3 Este 6 Este 0 -- -- 85
2019-02-06 09:00:00 3.6 3 Este 6 Este 0 -- -- 95
2019-02-06 08:00:00 1.9 3 Este 5 Nordeste 0 -- -- 95
2019-02-06 07:00:00 2.4 0 Calma 3 Oeste 0 -- -- 94
2019-02-06 06:00:00 3.1 0 Calma 6 Norte 0 -- -- 93
2019-02-06 05:00:00 3.5 3 Nordeste 8 Norte 0 -- -- 93
2019-02-06 04:00:00 3.7 0 Calma 5 Norte 0 -- -- 90
2019-02-06 03:00:00 4.2 0 Calma 5 Noroeste 0 -- -- 89
2019-02-06 02:00:00 4 0 Calma 4 Norte 0 -- -- 90
2019-02-06 01:00:00 4.2 0 Calma 6 Norte 0 -- -- 91
2019-02-06 00:00:00 4.5 0 Calma 5 Norte 0 -- -- 90
2019-02-05 23:00:00 4.9 0 Calma 6 Norte 0 -- -- 88
2019-02-05 22:00:00 5.5 2 Norte 5 Norte 0 -- -- 86
2019-02-05 21:00:00 6 0 Calma 6 Norte 0 -- -- 82
2019-02-05 20:00:00 7.5 2 Sudeste 8 Oeste 0 -- -- 74
2019-02-05 19:00:00 8.2 4 Noroeste 8 Oeste 0 -- -- 71
2019-02-05 18:00:00 10.4 0 Calma 10 Sudoeste 0 -- -- 63
2019-02-05 17:00:00 11.4 6 Oeste 14 Oeste 0 -- -- 59
2019-02-05 16:00:00 12 7 Oeste 13 Oeste 0 -- -- 51
2019-02-05 15:00:00 10.7 10 Oeste 17 Oeste 0 -- -- 48
2019-02-05 14:00:00 10.5 5 Sudoeste 19 Oeste 0 -- -- 50
2019-02-05 13:00:00 10 12 Oeste 19 Sudoeste 0 -- -- 53
2019-02-05 12:00:00 9.7 8 Oeste 21 Oeste 0 -- -- 53
2019-02-05 11:00:00 8.1 8 Oeste 22 Oeste 0 -- -- 56
2019-02-05 10:00:00 6.1 9 Oeste 16 Oeste 0 -- -- 58
2019-02-05 09:00:00 3.8 2 Sudeste 7 Este 0 -- -- 67
2019-02-05 08:00:00 1.6 4 Noroeste 10 Noroeste 0 -- -- 72
2019-02-05 07:00:00 1.8 3 Noroeste 8 Oeste 0 -- -- 72
2019-02-05 06:00:00 2.4 3 Norte 8 Noroeste 0 -- -- 70
2019-02-05 05:00:00 2.5 3 Noroeste 8 Norte 0 -- -- 70
2019-02-05 04:00:00 2.5 4 Noroeste 8 Norte 0 -- -- 67
2019-02-05 03:00:00 2.7 2 Oeste 6 Nordeste 0 -- -- 66
2019-02-05 02:00:00 2.6 0 Calma 5 Oeste 0 -- -- 68
2019-02-05 01:00:00 3 3 Noroeste 6 Nordeste 0 -- -- 65
2019-02-05 00:00:00 3 0 Calma 5 Norte 0 -- -- 67
2019-02-04 23:00:00 3.2 2 Norte 5 Norte 0 -- -- 66
2019-02-04 22:00:00 3.3 0 Calma 4 Nordeste 0 -- -- 65
2019-02-04 21:00:00 3.3 0 Calma 4 Nordeste 0 -- -- 64
2019-02-04 20:00:00 3.9 3 Noroeste 12 Oeste 0 -- -- 60
2019-02-04 19:00:00 4.8 6 Oeste 13 Oeste 0 -- -- 54
2019-02-04 18:00:00 7.3 4 Oeste 13 Oeste 0 -- -- 48
2019-02-04 17:00:00 8.4 7 Oeste 16 Oeste 0 -- -- 45
2019-02-04 16:00:00 10 8 Oeste 17 Oeste 0 -- -- 37
2019-02-04 15:00:00 10.2 5 Oeste 13 Oeste 0 -- -- 35
2019-02-04 14:00:00 7.8 6 Sudoeste 20 Oeste 0 -- -- 36
2019-02-04 13:00:00 7.2 7 Oeste 16 Oeste 0 -- -- 41
2019-02-04 12:00:00 4.1 5 Sudoeste 22 Oeste 0 -- -- 48
2019-02-04 11:00:00 2.8 12 Oeste 18 Oeste 0 -- -- 51
2019-02-04 10:00:00 2.5 4 Este 13 Noroeste 0 -- -- 52
2019-02-04 09:00:00 -0.8 2 Sudoeste 10 Nordeste 0 -- -- 55
2019-02-04 08:00:00 -2.5 4 Sudeste 12 Sudoeste 0 -- -- 56
2019-02-04 07:00:00 -1.5 4 Sudeste 19 Noroeste 0 -- -- 52
2019-02-04 06:00:00 -1.8 9 Noroeste 19 Noroeste 0 -- -- 51
2019-02-04 05:00:00 -1.7 3 Norte 13 Noroeste 0 -- -- 45
2019-02-04 04:00:00 -3 3 Noroeste 7 Norte 0 -- -- 50
2019-02-04 03:00:00 -2.2 3 Noroeste 12 Oeste -- -- -- 49
2019-02-04 02:00:00 -1.7 3 Norte 9 Este 0 -- -- 48
2019-02-04 01:00:00 -0.3 5 Oeste 14 Oeste 0 -- -- 42
2019-02-04 00:00:00 1.7 3 Norte 21 Norte 0 -- -- 34
2019-02-03 23:00:00 1.8 6 Oeste 17 Norte 0 -- -- 33
2019-02-03 22:00:00 1.4 4 Norte 14 Norte 0 -- -- 36
2019-02-03 21:00:00 1.7 5 Nordeste 14 Norte 0 -- -- 39
2019-02-03 20:00:00 1.9 4 Noroeste 15 Nordeste 0 -- -- 40
2019-02-03 19:00:00 3.1 5 Noroeste 25 Norte 0 -- -- 37
2019-02-03 18:00:00 5.5 4 Noroeste 25 Norte 0 -- -- 33
2019-02-03 17:00:00 6.7 6 Norte 28 Nordeste 0 -- -- 32
2019-02-03 16:00:00 7.9 11 Norte 34 Norte 0 -- -- 30
2019-02-03 15:00:00 8.3 9 Norte 35 Norte 0 -- -- 28
2019-02-03 14:00:00 8.8 9 Norte 20 Norte 0 -- -- 27
2019-02-03 13:00:00 8.2 6 Norte 21 Nordeste 0 -- -- 28
2019-02-03 12:00:00 7.2 7 Nordeste 19 Norte 0 -- -- 30
2019-02-03 11:00:00 5.8 6 Norte 26 Norte 0 -- -- 34
2019-02-03 10:00:00 3.8 10 Norte 25 Norte 0 -- -- 33
2019-02-03 09:00:00 1.2 5 Noroeste 13 Nordeste 0 -- -- 39
2019-02-03 08:00:00 -2.1 3 Norte 8 Norte 0 -- -- 50
2019-02-03 07:00:00 -1.7 2 Norte 13 Norte 0 -- -- 50
2019-02-03 06:00:00 -2.4 3 Norte 6 Norte 0 -- -- 57
2019-02-03 05:00:00 -1.6 2 Norte 5 Norte 0 -- -- 54
2019-02-03 04:00:00 -1.1 0 Calma 8 Oeste 0 -- -- 50
2019-02-03 03:00:00 -1.1 3 Norte 7 Oeste 0 -- -- 52
2019-02-03 02:00:00 -0.8 2 Oeste 9 Oeste 0 -- -- 52
2019-02-03 01:00:00 0.4 4 Oeste 12 Noroeste 0 -- -- 49
2019-02-03 00:00:00 0.9 4 Noroeste 10 Noroeste 0 -- -- 54
2019-02-02 23:00:00 1.5 7 Noroeste 14 Noroeste 0 -- -- 52
2019-02-02 22:00:00 1.9 6 Noroeste 14 Oeste 0 -- -- 52
2019-02-02 21:00:00 2.1 6 Noroeste 12 Noroeste 0 -- -- 55
2019-02-02 20:00:00 2.5 7 Noroeste 11 Noroeste 0 -- -- 65
2019-02-02 19:00:00 3 3 Norte 12 Oeste 0 -- -- 64
2019-02-02 18:00:00 4.9 7 Nordeste 18 Este 0 -- -- 73
2019-02-02 17:00:00 6.9 4 Oeste 18 Sudoeste 0 -- -- 61
2019-02-02 16:00:00 5.6 7 Sudoeste 13 Sudoeste 0 -- -- 79
2019-02-02 15:00:00 5.6 8 Sudoeste 24 Oeste 0 -- -- 79
2019-02-02 14:00:00 4.7 15 Oeste 23 Oeste 0 -- -- 83
2019-02-02 13:00:00 3.7 12 Oeste 28 Oeste 0 -- -- 89
2019-02-02 12:00:00 2.1 12 Oeste 24 Oeste 0 -- -- 95
2019-02-02 11:00:00 1.6 9 Oeste 25 Oeste 0 -- -- 95
2019-02-02 10:00:00 1.2 12 Oeste 23 Oeste 0 -- -- 98
2019-02-02 09:00:00 0.6 9 Oeste 21 Oeste 0 -- -- 98
2019-02-02 08:00:00 0.5 5 Oeste 19 Oeste 0 -- -- 98
2019-02-02 07:00:00 0.4 8 Oeste 29 Oeste 0 -- -- 98
2019-02-02 06:00:00 0.5 8 Oeste 21 Sudoeste 0 -- -- 98
2019-02-02 05:00:00 0.8 8 Oeste 18 Oeste 0 -- -- 97
2019-02-02 04:00:00 1.3 8 Oeste 19 Oeste 0 -- -- 97
2019-02-02 03:00:00 1.8 10 Oeste 21 Oeste 0 -- -- 96
2019-02-02 02:00:00 1.8 9 Oeste 19 Oeste 0.2 -- -- 95
2019-02-02 01:00:00 2.3 5 Noroeste 16 Oeste 0.6 -- -- 94
2019-02-02 00:00:00 2.7 10 Sudoeste 37 Sudoeste 1.2 -- -- 93
2019-02-01 23:00:00 4.3 14 Oeste 29 Oeste 0 -- -- 85
2019-02-01 22:00:00 5 6 Sudoeste 23 Oeste 0 -- -- 77
2019-02-01 21:00:00 5.5 6 Oeste 17 Sudoeste 0 -- -- 73
2019-02-01 20:00:00 5.8 11 Oeste 23 Sudoeste 0 -- -- 72
2019-02-01 19:00:00 6.4 9 Oeste 23 Oeste 0 -- -- 76
2019-02-01 18:00:00 8 16 Oeste 36 Sudoeste 0 -- -- 70
2019-02-01 17:00:00 9.1 22 Oeste 33 Oeste 0 -- -- 68
2019-02-01 16:00:00 9.8 18 Oeste 32 Oeste 0 -- -- 66
2019-02-01 15:00:00 10.3 21 Oeste 41 Oeste 0 -- -- 66
2019-02-01 14:00:00 10.1 28 Oeste 44 Oeste 0 -- -- 70
2019-02-01 13:00:00 8.9 18 Oeste 28 Oeste 0 -- -- 77
2019-02-01 12:00:00 8.2 14 Oeste 24 Oeste 0 -- -- 81
2019-02-01 11:00:00 6.6 14 Oeste 21 Oeste 0.2 -- -- 98
2019-02-01 10:00:00 6.1 13 Oeste 24 Oeste 0.6 -- -- 96
2019-02-01 09:00:00 7.8 15 Oeste 26 Oeste 0 -- -- 94
2019-02-01 08:00:00 8.4 11 Sudoeste 19 Sudoeste 0 -- -- 93
2019-02-01 07:00:00 8.2 8 Sudoeste 26 Sudoeste 0.2 -- -- 91
2019-02-01 06:00:00 9.1 12 Sudoeste 18 Oeste 0.2 -- -- 84
2019-02-01 05:00:00 9.1 0 Calma 14 Oeste 0 -- -- 79
2019-02-01 04:00:00 9.4 9 Oeste 13 Sudoeste 0 -- -- 78
2019-02-01 03:00:00 9.2 8 Oeste 13 Oeste 0 -- -- 80
2019-02-01 02:00:00 8.6 2 Sudeste 17 Oeste 0 -- -- 82
2019-02-01 01:00:00 8.6 3 Oeste 17 Oeste 0 -- -- 83
2019-02-01 00:00:00 9 10 Oeste 21 Oeste 0 -- -- 83
2019-01-31 23:00:00 8.4 14 Oeste 28 Oeste 0 -- -- 86
2019-01-31 22:00:00 7.2 9 Oeste 16 Oeste 0 -- -- 91
2019-01-31 21:00:00 6.8 6 Oeste 13 Oeste 0 -- -- 91
2019-01-31 20:00:00 7.3 5 Oeste 13 Oeste 0 -- -- 89
2019-01-31 19:00:00 7 5 Oeste 15 Oeste 0 -- -- 90
2019-01-31 18:00:00 7.5 9 Oeste 24 Oeste 0 -- -- 87
2019-01-31 17:00:00 8.5 15 Oeste 36 Oeste 0 -- -- 83
2019-01-31 16:00:00 10 22 Oeste 40 Oeste 0 -- -- 76
2019-01-31 15:00:00 9.5 21 Oeste 35 Oeste 0 -- -- 78
2019-01-31 14:00:00 8.9 20 Oeste 32 Oeste 0 -- -- 79
2019-01-31 13:00:00 7.2 11 Oeste 23 Oeste 0 -- -- 84
2019-01-31 12:00:00 6.3 14 Oeste 26 Oeste 0 -- -- 81
2019-01-31 11:00:00 4.9 14 Oeste 25 Oeste 0 -- -- 84
2019-01-31 10:00:00 3.7 9 Oeste 18 Oeste 0 -- -- 90
2019-01-31 09:00:00 2 6 Oeste 14 Oeste 0 -- -- 96
2019-01-31 08:00:00 1.4 5 Noroeste 20 Oeste 0 -- -- 95
2019-01-31 07:00:00 1 10 Oeste 21 Oeste 0 -- -- 94
2019-01-31 06:00:00 0.7 6 Oeste 21 Oeste 0 -- -- 92
2019-01-31 05:00:00 1.2 10 Oeste 22 Sudoeste 0 -- -- 87
2019-01-31 04:00:00 2.1 10 Oeste 23 Oeste 0 -- -- 79
2019-01-31 03:00:00 2.4 10 Oeste 24 Oeste 0 -- -- 76
2019-01-31 02:00:00 2.2 9 Oeste 17 Oeste 0 -- -- 74
2019-01-31 01:00:00 2.4 11 Oeste 22 Oeste 0 -- -- 72
2019-01-31 00:00:00 2.2 9 Oeste 23 Oeste 0 -- -- 72
2019-01-30 23:00:00 2.2 5 Noroeste 17 Noroeste 0 -- -- 73
2019-01-30 22:00:00 2.4 8 Noroeste 17 Noroeste 0 -- -- 74
2019-01-30 21:00:00 2.2 8 Noroeste 17 Oeste 0 -- -- 80
2019-01-30 20:00:00 3 5 Oeste 25 Oeste 0 -- -- 78
2019-01-30 19:00:00 3.6 10 Oeste 34 Oeste 0 -- -- 78
2019-01-30 18:00:00 4.9 18 Oeste 36 Oeste 0 -- -- 74
2019-01-30 17:00:00 5.9 21 Oeste 37 Oeste 0 -- -- 68
2019-01-30 16:00:00 6.9 25 Oeste 44 Oeste 0 -- -- 61
2019-01-30 15:00:00 7 23 Oeste 43 Sudoeste 0 -- -- 63
2019-01-30 14:00:00 6.5 23 Oeste 37 Oeste 0 -- -- 63
2019-01-30 13:00:00 5.8 21 Oeste 36 Oeste 0 -- -- 65
2019-01-30 12:00:00 4.4 19 Oeste 28 Oeste 0 -- -- 73
2019-01-30 11:00:00 3.1 15 Oeste 26 Oeste 0 -- -- 82
2019-01-30 10:00:00 2 11 Oeste 19 Oeste 0 -- -- 87
2019-01-30 09:00:00 0.3 8 Oeste 26 Oeste 0 -- -- 96
2019-01-30 08:00:00 -0.7 8 Noroeste 21 Oeste 0 -- -- 97
2019-01-30 07:00:00 -0.4 8 Noroeste 21 Oeste 0 -- -- 97
2019-01-30 06:00:00 -0.5 5 Noroeste 15 Noroeste 0 -- -- 97
2019-01-30 05:00:00 0.4 6 Oeste 13 Oeste 0 -- -- 97
2019-01-30 04:00:00 0.9 7 Oeste 24 Oeste 0 -- -- 97
2019-01-30 03:00:00 1.2 11 Oeste 26 Oeste 0 -- -- 98
2019-01-30 02:00:00 1.5 10 Oeste 22 Oeste 0 -- -- 97
2019-01-30 01:00:00 2 12 Oeste 23 Noroeste 0 -- -- 97
2019-01-30 00:00:00 2.2 11 Oeste 28 Oeste 0 -- -- 96
2019-01-29 23:00:00 2.5 8 Oeste 29 Oeste 0 -- -- 96
2019-01-29 22:00:00 2.5 9 Oeste 24 Oeste 0 -- -- 96
2019-01-29 21:00:00 2.4 11 Oeste 19 Oeste 0 -- -- 96
2019-01-29 20:00:00 2.2 9 Oeste 23 Oeste 0 -- -- 96
2019-01-29 19:00:00 2 10 Oeste 25 Oeste 0 -- -- 96
2019-01-29 18:00:00 2 14 Oeste 23 Oeste 0 -- -- 94
2019-01-29 17:00:00 2.4 8 Oeste 22 Oeste 0 -- -- 91
2019-01-29 16:00:00 2.8 11 Oeste 19 Oeste 0 -- -- 90
2019-01-29 15:00:00 2.6 10 Sudoeste 19 Oeste 0 -- -- 90
2019-01-29 14:00:00 2.2 6 Sudoeste 11 Sudoeste 0 -- -- 90
2019-01-29 13:00:00 1.9 3 Sur 7 Oeste 0 -- -- 93
2019-01-29 12:00:00 1.3 4 Sur 17 Oeste 0 -- -- 94
2019-01-29 11:00:00 1.4 10 Oeste 17 Oeste 0 -- -- 94
2019-01-29 10:00:00 0.9 4 Norte 12 Oeste 0 -- -- 95
2019-01-29 09:00:00 -0.2 3 Noroeste 6 Noroeste 0 -- -- 96
2019-01-29 08:00:00 -1.2 0 Calma 12 Nordeste 0 -- -- 95
2019-01-29 07:00:00 -1.1 3 Nordeste 9 Sur 0 -- -- 93
2019-01-29 06:00:00 -0.5 4 Norte 12 Noroeste 0 -- -- 92
2019-01-29 05:00:00 0.5 6 Noroeste 10 Noroeste 0 -- -- 92
2019-01-29 04:00:00 0.4 4 Noroeste 15 Oeste 0 -- -- 91
2019-01-29 03:00:00 0.8 3 Noroeste 14 Noroeste 0 -- -- 91
2019-01-29 02:00:00 -0.2 3 Noroeste 8 Oeste 0 -- -- 94
2019-01-29 01:00:00 -0.3 4 Norte 7 Norte 0 -- -- 92
2019-01-29 00:00:00 -0.1 3 Noroeste 9 Norte 0 -- -- 90
2019-01-28 23:00:00 0.3 3 Norte 10 Norte 0 -- -- 89
2019-01-28 22:00:00 0.5 4 Norte 12 Norte 0 -- -- 88
2019-01-28 21:00:00 1.5 3 Oeste 11 Norte 0 -- -- 84
2019-01-28 20:00:00 2.4 4 Norte 17 Nordeste 0 -- -- 82
2019-01-28 19:00:00 3.4 5 Noroeste 15 Nordeste 0 -- -- 76
2019-01-28 18:00:00 5.9 4 Norte 13 Norte 0 -- -- 67
2019-01-28 17:00:00 7 3 Norte 12 Norte 0 -- -- 68
2019-01-28 16:00:00 7.2 5 Noroeste 26 Oeste 0 -- -- 70
2019-01-28 15:00:00 6.9 13 Oeste 33 Oeste 0 -- -- 74
2019-01-28 14:00:00 5.4 12 Oeste 31 Noroeste 0 -- -- 78
2019-01-28 13:00:00 4.3 13 Oeste 28 Oeste 0 -- -- 79
2019-01-28 12:00:00 4.4 19 Oeste 30 Oeste 0 -- -- 79
2019-01-28 11:00:00 2.4 17 Oeste 27 Oeste 0 -- -- 87
2019-01-28 10:00:00 0.4 10 Oeste 21 Noroeste 0 -- -- 91
2019-01-28 09:00:00 0 7 Oeste 21 Noroeste 0 -- -- 92
2019-01-28 08:00:00 -1 8 Oeste 20 Sudoeste 0 -- -- 90
2019-01-28 07:00:00 -1.3 4 Noroeste 9 Noroeste 0 -- -- 86
2019-01-28 06:00:00 -0.9 3 Noroeste 13 Noroeste 0 -- -- 81
2019-01-28 05:00:00 -0.3 5 Noroeste 10 Noroeste 0 -- -- 78
2019-01-28 04:00:00 -0.3 5 Noroeste 9 Noroeste 0 -- -- 78
2019-01-28 03:00:00 -0.9 0 Calma 5 Oeste 0 -- -- 82
2019-01-28 02:00:00 -0.4 0 Calma 10 Norte 0 -- -- 80
2019-01-28 01:00:00 0.8 6 Oeste 11 Oeste 0 -- -- 75
2019-01-28 00:00:00 0.5 3 Norte 10 Oeste 0 -- -- 79
2019-01-27 23:00:00 1.9 5 Sudoeste 18 Oeste 0 -- -- 74
2019-01-27 22:00:00 2.4 9 Oeste 19 Oeste 0 -- -- 71
2019-01-27 21:00:00 3.1 7 Noroeste 14 Oeste 0 -- -- 72
2019-01-27 20:00:00 4.3 6 Oeste 22 Sudoeste 0 -- -- 71
2019-01-27 19:00:00 6 5 Noroeste 14 Oeste 0 -- -- 63
2019-01-27 18:00:00 8.2 4 Oeste 17 Oeste 0 -- -- 60
2019-01-27 17:00:00 9.5 8 Oeste 29 Oeste 0 -- -- 57
2019-01-27 16:00:00 9.8 10 Oeste 21 Oeste 0 -- -- 61
2019-01-27 15:00:00 10.2 10 Oeste 24 Oeste 0 -- -- 61
2019-01-27 14:00:00 8.8 12 Oeste 26 Oeste 0 -- -- 68
2019-01-27 13:00:00 6.9 14 Oeste 23 Oeste 0 -- -- 82
2019-01-27 12:00:00 3.9 3 Norte 12 Oeste 0 -- -- 96
2019-01-27 11:00:00 3 4 Oeste 16 Oeste 0 -- -- 97
2019-01-27 10:00:00 2.6 8 Oeste 17 Oeste 0 -- -- 97
2019-01-27 09:00:00 2.5 4 Oeste 13 Oeste 0 -- -- 97
2019-01-27 08:00:00 2.4 4 Norte 10 Norte 0 -- -- 97
2019-01-27 07:00:00 2.3 0 Calma 5 Este 0 -- -- 95
2019-01-27 06:00:00 2.7 2 Nordeste 5 Este 0 -- -- 95
2019-01-27 05:00:00 3.3 4 Noroeste 6 Noroeste 0 -- -- 93
2019-01-27 04:00:00 3.8 0 Calma 16 Oeste 0 -- -- 89
2019-01-27 03:00:00 5 7 Noroeste 19 Noroeste 0 -- -- 88
2019-01-27 02:00:00 4.8 4 Noroeste 11 Oeste 0 -- -- 90
2019-01-27 01:00:00 4.9 6 Noroeste 13 Oeste 0 -- -- 91
2019-01-27 00:00:00 4.8 4 Noroeste 12 Noroeste 0 -- -- 91
2019-01-26 23:00:00 4.7 0 Calma 10 Oeste 0 -- -- 90
2019-01-26 22:00:00 5.8 4 Noroeste 17 Sudoeste 0 -- -- 87
2019-01-26 21:00:00 5.6 4 Norte 12 Oeste 0 -- -- 89
2019-01-26 20:00:00 6 4 Noroeste 17 Noroeste 0 -- -- 86
2019-01-26 19:00:00 6.8 5 Noroeste 14 Noroeste 0 -- -- 83
2019-01-26 18:00:00 8.3 2 Noroeste 18 Oeste 0 -- -- 75
2019-01-26 17:00:00 10 10 Oeste 21 Oeste 0 -- -- 68
2019-01-26 16:00:00 10.7 10 Oeste 17 Oeste 0 -- -- 65
2019-01-26 15:00:00 10.3 9 Oeste 20 Oeste 0 -- -- 66
2019-01-26 14:00:00 9.1 12 Oeste 21 Oeste 0 -- -- 71
2019-01-26 13:00:00 8.1 10 Oeste 22 Oeste 0 -- -- 77
2019-01-26 12:00:00 7.4 10 Oeste 20 Oeste 0 -- -- 82
2019-01-26 11:00:00 4.4 9 Oeste 14 Oeste 0 -- -- 96
2019-01-26 10:00:00 2.8 3 Este 12 Oeste 0 -- -- 97
2019-01-26 09:00:00 2.4 3 Sudoeste 6 Sudoeste 0 -- -- 97
2019-01-26 08:00:00 2.3 2 Norte 14 Oeste 0 -- -- 96
2019-01-26 07:00:00 2.8 7 Noroeste 13 Noroeste 0 -- -- 95
2019-01-26 06:00:00 2.2 3 Norte 8 Este 0 -- -- 92
2019-01-26 05:00:00 3.4 3 Norte 21 Oeste 0 -- -- 88
2019-01-26 04:00:00 4.6 11 Noroeste 28 Oeste 0 -- -- 85
2019-01-26 03:00:00 4.6 5 Oeste 18 Norte 0 -- -- 80
2019-01-26 02:00:00 4.8 4 Noroeste 10 Oeste 0 -- -- 75
2019-01-26 01:00:00 5.4 4 Noroeste 14 Oeste 0 -- -- 69
2019-01-26 00:00:00 6.9 8 Oeste 15 Oeste 0 -- -- 58
2019-01-25 23:00:00 5 3 Noroeste 11 Norte 0 -- -- 60
2019-01-25 22:00:00 4.9 2 Este 9 Norte 0 -- -- 59
2019-01-25 21:00:00 5.4 0 Calma 6 Sudeste 0 -- -- 61
2019-01-25 20:00:00 6 4 Este 9 Norte 0 -- -- 65
2019-01-25 19:00:00 6.6 3 Nordeste 6 Norte 0 -- -- 64
2019-01-25 18:00:00 10.4 0 Calma 12 Sudeste 0 -- -- 52
2019-01-25 17:00:00 13.2 5 Sur 12 Oeste 0 -- -- 45
2019-01-25 16:00:00 13.4 6 Oeste 16 Sudoeste 0 -- -- 42
2019-01-25 15:00:00 12.7 9 Oeste 17 Oeste 0 -- -- 42
2019-01-25 14:00:00 11.6 9 Oeste 18 Oeste 0 -- -- 42
2019-01-25 13:00:00 10.5 9 Sudoeste 23 Oeste 0 -- -- 40
2019-01-25 12:00:00 10.2 8 Sudoeste 16 Sur 0 -- -- 34
2019-01-25 11:00:00 9.3 4 Sudeste 8 Nordeste 0 -- -- 33
2019-01-25 10:00:00 7 3 Este 8 Este 0 -- -- 37
2019-01-25 09:00:00 3.2 3 Nordeste 7 Norte 0 -- -- 43
2019-01-25 08:00:00 0.6 4 Norte 8 Norte 0 -- -- 43
2019-01-25 07:00:00 -0.3 2 Nordeste 8 Nordeste 0 -- -- 50
2019-01-25 06:00:00 -0.1 2 Norte 8 Norte 0 -- -- 46
2019-01-25 05:00:00 0.8 2 Noroeste 12 Oeste 0 -- -- 38
2019-01-25 04:00:00 0.2 6 Oeste 9 Oeste 0 -- -- 42
2019-01-25 03:00:00 0.3 4 Norte 10 Norte 0 -- -- 41
2019-01-25 02:00:00 -0.6 3 Norte 9 Nordeste 0 -- -- 41
2019-01-25 01:00:00 -0.1 5 Norte 10 Norte 0 -- -- 36
2019-01-25 00:00:00 0.7 3 Norte 13 Noroeste 0 -- -- 34
2019-01-24 23:00:00 0.9 6 Noroeste 13 Oeste 0 -- -- 33
2019-01-24 22:00:00 0.6 5 Noroeste 10 Oeste 0 -- -- 34
2019-01-24 21:00:00 0.6 4 Noroeste 11 Norte 0 -- -- 41
2019-01-24 20:00:00 1.9 5 Norte 19 Noroeste 0 -- -- 33
2019-01-24 19:00:00 3.3 6 Norte 31 Nordeste 0 -- -- 29
2019-01-24 18:00:00 4.3 11 Norte 41 Nordeste 0 -- -- 28
2019-01-24 17:00:00 6.5 11 Norte 39 Norte 0 -- -- 29
2019-01-24 16:00:00 7.3 12 Norte 37 Norte 0 -- -- 29
2019-01-24 15:00:00 8.1 10 Norte 38 Norte 0 -- -- 28
2019-01-24 14:00:00 8.3 8 Noroeste 41 Noroeste 0 -- -- 29
2019-01-24 13:00:00 7.4 10 Norte 30 Nordeste 0 -- -- 31
2019-01-24 12:00:00 6 10 Oeste 28 Oeste 0 -- -- 38
2019-01-24 11:00:00 4.5 5 Sudoeste 18 Norte 0 -- -- 41
2019-01-24 10:00:00 3 4 Norte 18 Oeste 0 -- -- 43
2019-01-24 09:00:00 0.5 7 Oeste 22 Oeste 0 -- -- 48
2019-01-24 08:00:00 -1.5 7 Oeste 22 Sudoeste 0 -- -- 60
2019-01-24 07:00:00 -2.4 9 Noroeste 17 Oeste 0 -- -- 72
2019-01-24 06:00:00 -2.2 5 Oeste 18 Sudoeste 0 -- -- 74
2019-01-24 05:00:00 -1.6 5 Sudoeste 22 Oeste 0 -- -- 71
2019-01-24 04:00:00 -2 4 Nordeste 11 Nordeste 0.2 -- -- 78
2019-01-24 03:00:00 -1.8 3 Noroeste 13 Oeste 0 -- -- 76
2019-01-24 02:00:00 -1.5 4 Noroeste 15 Norte 0 -- -- 73
2019-01-24 01:00:00 -1 8 Nordeste 15 Norte 0 -- -- 79
2019-01-24 00:00:00 -0.6 5 Norte 25 Norte 0 -- -- 84
2019-01-23 23:00:00 -0.6 8 Nordeste 21 Norte 0.2 -- -- 92
2019-01-23 22:00:00 0.2 6 Nordeste 22 Este 0.2 -- -- 88
2019-01-23 21:00:00 1 6 Nordeste 15 Nordeste 0 -- -- 89
2019-01-23 20:00:00 1 2 Norte 13 Nordeste 0 -- -- 90
2019-01-23 19:00:00 1.3 8 Nordeste 17 Nordeste 0 -- -- 90
2019-01-23 18:00:00 2.4 7 Norte 18 Este 0 -- -- 91
2019-01-23 17:00:00 2.5 8 Oeste 18 Noroeste 0 -- -- 94
2019-01-23 16:00:00 2.4 4 Sudoeste 14 Oeste 0 -- -- 94
2019-01-23 15:00:00 1.8 6 Oeste 19 Noroeste 0 -- -- 95
2019-01-23 14:00:00 1.4 10 Oeste 22 Oeste 0 -- -- 94
2019-01-23 13:00:00 3.3 8 Oeste 14 Oeste 0 -- -- 92
2019-01-23 12:00:00 2.8 3 Noroeste 11 Norte 0 -- -- 95
2019-01-23 11:00:00 0.5 4 Norte 9 Nordeste 0.4 -- -- 98
2019-01-23 10:00:00 -0.3 0 Calma 7 Este 0.4 -- -- 98
2019-01-23 09:00:00 -0.8 3 Sudoeste 12 Oeste 0 -- -- 98
2019-01-23 08:00:00 -1.1 5 Oeste 16 Oeste 0 -- -- 97
2019-01-23 07:00:00 -0.9 4 Oeste 18 Oeste 0 -- -- 96
2019-01-23 06:00:00 -0.8 7 Oeste 20 Oeste 0 -- -- 96
2019-01-23 05:00:00 -0.6 4 Oeste 14 Oeste 0 -- -- 96
2019-01-23 04:00:00 -0.3 7 Oeste 12 Oeste 0 -- -- 95
2019-01-23 03:00:00 -0.2 4 Oeste 13 Oeste 0 -- -- 94
2019-01-23 02:00:00 -0.8 3 Sudoeste 8 Oeste 0 -- -- 90
2019-01-23 01:00:00 -1 0 Calma 5 Este 0 -- -- 86
2019-01-23 00:00:00 -0.6 3 Oeste 10 Oeste 0 -- -- 84
2019-01-22 23:00:00 -0.5 2 Oeste 7 Oeste 0 -- -- 83
2019-01-22 22:00:00 0.1 4 Noroeste 9 Este 0 -- -- 81
2019-01-22 21:00:00 0.4 3 Sudeste 14 Oeste 0 -- -- 82
2019-01-22 20:00:00 0.4 0 Calma 14 Oeste 0 -- -- 80
2019-01-22 19:00:00 0.8 3 Noroeste 12 Oeste 0 -- -- 74
2019-01-22 18:00:00 1.5 3 Noroeste 12 Oeste 0 -- -- 71
2019-01-22 17:00:00 2.6 4 Oeste 13 Oeste 0 -- -- 58
2019-01-22 16:00:00 2.3 9 Oeste 17 Oeste 0 -- -- 70
2019-01-22 15:00:00 2.9 9 Oeste 19 Oeste 0 -- -- 69
2019-01-22 14:00:00 2.8 6 Oeste 17 Oeste 0 -- -- 68
2019-01-22 13:00:00 2 9 Oeste 18 Oeste 0 -- -- 79
2019-01-22 12:00:00 -0.2 11 Oeste 24 Oeste 0 -- -- 88
2019-01-22 11:00:00 0.8 12 Oeste 21 Oeste 0 -- -- 81
2019-01-22 10:00:00 0.5 3 Sur 12 Oeste 0 -- -- 84
2019-01-22 09:00:00 -2.2 7 Oeste 13 Oeste 0 -- -- 95
2019-01-22 08:00:00 -3.6 3 Este 8 Noroeste 0 -- -- 95
2019-01-22 07:00:00 -3.7 3 Norte 6 Norte 0 -- -- 94
2019-01-22 06:00:00 -3 2 Noroeste 6 Noroeste 0 -- -- 94
2019-01-22 05:00:00 -2.3 0 Calma 17 Oeste 0 -- -- 93
2019-01-22 04:00:00 -2.1 9 Noroeste 16 Noroeste 0 -- -- 96
2019-01-22 03:00:00 -1.7 2 Norte 12 Noroeste 0 -- -- 96
2019-01-22 02:00:00 -1 0 Calma 10 Noroeste 0 -- -- 97
2019-01-22 01:00:00 -0.5 4 Noroeste 10 Noroeste 0 -- -- 98
2019-01-22 00:00:00 0.7 2 Nordeste 6 Nordeste 0 -- -- 96
2019-01-21 23:00:00 0.9 0 Calma 5 Nordeste 0 -- -- 95
2019-01-21 22:00:00 1.5 2 Nordeste 12 Este 0 -- -- 94
2019-01-21 21:00:00 2.4 3 Este 11 Este 0 -- -- 94
2019-01-21 20:00:00 2.4 4 Nordeste 7 Nordeste 0 -- -- 91
2019-01-21 19:00:00 2.8 2 Nordeste 7 Oeste 0 -- -- 89
2019-01-21 18:00:00 3.9 3 Noroeste 10 Oeste 0 -- -- 83
2019-01-21 17:00:00 4.8 6 Oeste 17 Oeste 0 -- -- 81
2019-01-21 16:00:00 6.5 9 Oeste 20 Oeste 0 -- -- 74
2019-01-21 15:00:00 7.2 9 Oeste 18 Sudoeste 0 -- -- 72
2019-01-21 14:00:00 6.8 8 Oeste 19 Oeste 0 -- -- 78
2019-01-21 13:00:00 4.7 12 Oeste 20 Sudoeste 0 -- -- 93
2019-01-21 12:00:00 2 6 Sudoeste 10 Sudoeste 0 -- -- 98
2019-01-21 11:00:00 0.9 7 Sudoeste 11 Oeste 0 -- -- 98
2019-01-21 10:00:00 0.8 5 Oeste 12 Oeste 0 -- -- 98
2019-01-21 09:00:00 0.7 3 Oeste 10 Sudoeste 0 -- -- 98
2019-01-21 08:00:00 1.1 3 Sudoeste 12 Oeste 0 -- -- 98
2019-01-21 07:00:00 1.2 0 Calma 8 Oeste 0 -- -- 97
2019-01-21 06:00:00 1.3 3 Oeste 11 Oeste 0 -- -- 97
2019-01-21 05:00:00 1.1 4 Noroeste 13 Noroeste 0 -- -- 97
2019-01-21 04:00:00 0.5 2 Nordeste 8 Noroeste 0 -- -- 95
2019-01-21 03:00:00 0.6 2 Norte 14 Noroeste 0 -- -- 93
2019-01-21 02:00:00 2 8 Oeste 17 Oeste 0 -- -- 90
2019-01-21 01:00:00 2.2 2 Noroeste 11 Norte 0 -- -- 86
2019-01-21 00:00:00 2.1 0 Calma 14 Nordeste 0 -- -- 88
2019-01-20 23:00:00 2.4 5 Nordeste 17 Nordeste 0 -- -- 90
2019-01-20 22:00:00 2.1 3 Oeste 8 Sudeste 0 -- -- 91
2019-01-20 21:00:00 3.3 0 Calma 9 Oeste 0 -- -- 91
2019-01-20 20:00:00 3.7 2 Norte 8 Nordeste 0 -- -- 89
2019-01-20 19:00:00 3.6 4 Norte 11 Norte 0 -- -- 87
2019-01-20 18:00:00 4.6 2 Noroeste 8 Este 0 -- -- 83
2019-01-20 17:00:00 5.3 3 Norte 10 Nordeste 0 -- -- 81
2019-01-20 16:00:00 5.3 0 Calma 17 Sudeste 0 -- -- 78
2019-01-20 15:00:00 5.2 6 Norte 25 Este 0 -- -- 78
2019-01-20 14:00:00 5.3 6 Este 31 Nordeste 0 -- -- 77
2019-01-20 13:00:00 5.2 10 Nordeste 34 Este 0 -- -- 77
2019-01-20 12:00:00 4.3 10 Este 27 Nordeste 0.2 -- -- 89
2019-01-20 11:00:00 3.7 10 Este 26 Este 0.4 -- -- 94
2019-01-20 10:00:00 3.6 3 Este 11 Noroeste 1.4 -- -- 97
2019-01-20 09:00:00 3.3 4 Nordeste 12 Norte 1 -- -- 97
2019-01-20 08:00:00 3.4 4 Nordeste 10 Norte 1 -- -- 98
2019-01-20 07:00:00 3.3 0 Calma 6 Norte 0.8 -- -- 98
2019-01-20 06:00:00 3.1 3 Norte 7 Norte 0.6 -- -- 97
2019-01-20 05:00:00 3 0 Calma 13 Noroeste 0.8 -- -- 97
2019-01-20 04:00:00 2.8 6 Norte 10 Noroeste 1 -- -- 95
2019-01-20 03:00:00 2.8 0 Calma 5 Norte 0.2 -- -- 93
2019-01-20 02:00:00 2.8 0 Calma 5 Noroeste 0 -- -- 91
2019-01-20 01:00:00 2.4 0 Calma 8 Oeste 0 -- -- 88
2019-01-20 00:00:00 1.7 3 Oeste 7 Oeste 0 -- -- 89
2019-01-19 23:00:00 1.2 0 Calma 5 Norte 0 -- -- 91
2019-01-19 22:00:00 0.6 0 Calma 3 Norte 0 -- -- 88
2019-01-19 21:00:00 1.2 0 Calma 7 Norte 0 -- -- 84
2019-01-19 20:00:00 2 5 Noroeste 11 Oeste 0 -- -- 79
2019-01-19 19:00:00 2.9 3 Noroeste 13 Oeste 0 -- -- 78
2019-01-19 18:00:00 4.2 4 Oeste 10 Oeste 0 -- -- 74
2019-01-19 17:00:00 5.9 7 Oeste 15 Oeste 0 -- -- 69
2019-01-19 16:00:00 6.9 7 Oeste 18 Oeste 0 -- -- 68
2019-01-19 15:00:00 7.5 10 Oeste 19 Sudoeste 0 -- -- 68
2019-01-19 14:00:00 8.2 8 Oeste 15 Oeste 0 -- -- 65
2019-01-19 13:00:00 7.2 6 Oeste 14 Oeste 0 -- -- 71
2019-01-19 12:00:00 6.6 4 Sur 9 Sudoeste 0 -- -- 76
2019-01-19 11:00:00 4.8 6 Oeste 10 Oeste 0 -- -- 91
2019-01-19 10:00:00 1.3 0 Calma 6 Este 0 -- -- 99
2019-01-19 09:00:00 -0.3 2 Noroeste 6 Noroeste 0 -- -- 99
2019-01-19 08:00:00 -1.6 0 Calma 6 Nordeste 0 -- -- 98
2019-01-19 07:00:00 -1.5 3 Norte 8 Nordeste 0 -- -- 98
2019-01-19 06:00:00 -1.3 0 Calma 5 Oeste 0 -- -- 98
2019-01-19 05:00:00 -1.2 0 Calma 5 Norte 0 -- -- 98
2019-01-19 04:00:00 -1.6 0 Calma 4 Nordeste 0 -- -- 97
2019-01-19 03:00:00 -1.1 4 Nordeste 7 Nordeste 0 -- -- 97
2019-01-19 02:00:00 -0.6 3 Sudoeste 8 Sudoeste 0 -- -- 96
2019-01-19 01:00:00 0.1 0 Calma 9 Oeste 0 -- -- 97
2019-01-19 00:00:00 -0.4 3 Nordeste 7 Este 0 -- -- 96